OEFVS LZPP-EDLP
Flight info
| Callsign | OEFVS |
|---|---|
| Flight time | N/A |
| Altitude | 34000 |
| Route | MAVOR DCT VOZ DCT RAPET T843 DEMAB L604 MAPOX DCT PELUN PELUN3H |
| Aircraft | P180/L-SBDFGM3RWXY/LB1 |
Departure
| Time | N/A |
|---|---|
| Airport | Piešťany Airport (LZPP) |
Arrival
| Time | 2026-04-30 18:05 |
|---|---|
| Airport | Paderborn Lippstadt Airport (EDLP) |
| Time | Latitude | Longitude | Altitude | Speed | Heading |
|---|---|---|---|---|---|
| 2026-04-30 17:39 | 50.34474 | 11.28245 | 34402 ft | 419 kts | 290° |
| 2026-04-30 17:42 | 50.41136 | 10.85507 | 34406 ft | 417 kts | 289° |
| 2026-04-30 17:43 | 50.44520 | 10.63371 | 34394 ft | 417 kts | 288° |
| 2026-04-30 17:44 | 50.48409 | 10.36796 | 34392 ft | 418 kts | 287° |
| 2026-04-30 17:47 | 50.54458 | 9.97052 | 34388 ft | 410 kts | 298° |
| 2026-04-30 17:48 | 50.60915 | 9.82739 | 34381 ft | 400 kts | 314° |
| 2026-04-30 17:48 | 50.66230 | 9.72619 | 34382 ft | 400 kts | 314° |
| 2026-04-30 17:49 | 50.73346 | 9.59019 | 32380 ft | 403 kts | 314° |
| 2026-04-30 17:50 | 50.80496 | 9.45317 | 29799 ft | 406 kts | 314° |
| 2026-04-30 17:51 | 50.85943 | 9.34835 | 27752 ft | 417 kts | 313° |
| 2026-04-30 17:52 | 50.91512 | 9.24069 | 25860 ft | 423 kts | 313° |
| 2026-04-30 17:53 | 51.00767 | 9.06076 | 22748 ft | 416 kts | 313° |
| 2026-04-30 17:54 | 51.07944 | 8.92039 | 20208 ft | 401 kts | 313° |
| 2026-04-30 17:55 | 51.14251 | 8.77811 | 17649 ft | 396 kts | 291° |
| 2026-04-30 17:56 | 51.18081 | 8.61775 | 14640 ft | 380 kts | 297° |
| 2026-04-30 17:57 | 51.24293 | 8.56264 | 12208 ft | 354 kts | 1° |
| 2026-04-30 17:58 | 51.31074 | 8.55392 | 10194 ft | 307 kts | 351° |
| 2026-04-30 17:59 | 51.38815 | 8.50820 | 7680 ft | 290 kts | 347° |
| 2026-04-30 18:00 | 51.46369 | 8.46493 | 5229 ft | 288 kts | 345° |
| 2026-04-30 18:00 | 51.51931 | 8.43267 | 3412 ft | 276 kts | 348° |
| 2026-04-30 18:01 | 51.55070 | 8.44665 | 2945 ft | 220 kts | 61° |
| 2026-04-30 18:02 | 51.56990 | 8.50752 | 2144 ft | 187 kts | 61° |
| 2026-04-30 18:02 | 51.58749 | 8.55086 | 1483 ft | 120 kts | 62° |
| 2026-04-30 18:03 | 51.60053 | 8.58317 | 1043 ft | 112 kts | 64° |
| 2026-04-30 18:04 | 51.61230 | 8.61185 | 698 ft | 66 kts | 58° |
| 2026-04-30 18:05 | 51.61438 | 8.61953 | 697 ft | 10 kts | 99° |
| 2026-04-30 18:06 | 51.61133 | 8.61800 | 698 ft | 15 kts | 237° |
| 2026-04-30 18:07 | 51.60980 | 8.61703 | 698 ft | 0 kts | 226° |